Time;durP1;ratioP1;P1;durP2;ratioP2;P2;SDS_P1;SDS_P2;PMS_P1;PMS_P2;Temp;Humidity;BMP_temperature;BMP_pressure;BME280_temperature;BME280_humidity;BME280_pressure;Samples;Min_cycle;Max_cycle;Signal;HPM_P1;HPM_P2
2022/10/23 00:00:31;;;;;;;8.07;5.47;;;13.10;99.90;;;;;;5034003;28;20406;-72
2022/10/23 00:02:58;;;;;;;6.07;5.30;;;13.00;99.90;;;;;;5032783;28;20791;-72
2022/10/23 00:05:24;;;;;;;14.13;5.90;;;13.00;99.90;;;;;;5033978;28;20191;-72
2022/10/23 00:07:55;;;;;;;5.80;5.20;;;13.00;99.90;;;;;;5027421;28;20447;-72
2022/10/23 00:10:22;;;;;;;8.10;5.30;;;12.90;99.90;;;;;;5027842;28;20410;-73
2022/10/23 00:12:48;;;;;;;6.83;5.50;;;12.90;99.90;;;;;;5048473;28;20437;-72
2022/10/23 00:15:16;;;;;;;6.50;5.53;;;12.90;99.90;;;;;;5021527;28;20471;-73
2022/10/23 00:17:41;;;;;;;6.97;4.53;;;12.80;99.90;;;;;;5053139;28;20416;-72
2022/10/23 00:20:08;;;;;;;7.67;5.30;;;12.90;99.90;;;;;;5053127;28;20508;-73
2022/10/23 00:22:33;;;;;;;6.17;5.57;;;12.80;99.90;;;;;;5053154;28;20195;-73
2022/10/23 00:24:59;;;;;;;6.50;5.00;;;12.80;99.90;;;;;;5052757;28;20894;-72
2022/10/23 00:27:24;;;;;;;9.13;5.60;;;12.70;99.90;;;;;;5032810;28;20180;-72
2022/10/23 00:29:50;;;;;;;7.40;4.80;;;12.80;99.90;;;;;;5044484;28;20625;-72
2022/10/23 00:32:16;;;;;;;6.63;5.67;;;12.80;99.90;;;;;;5053173;28;20672;-72
2022/10/23 00:34:41;;;;;;;7.30;6.10;;;12.80;99.90;;;;;;5052808;28;20195;-72
2022/10/23 00:37:07;;;;;;;8.10;5.67;;;12.80;99.90;;;;;;5052850;28;20167;-72
2022/10/23 00:39:32;;;;;;;11.17;6.03;;;12.80;99.90;;;;;;5053399;28;20171;-72
2022/10/23 00:41:58;;;;;;;9.60;6.00;;;12.80;99.90;;;;;;5052985;28;20271;-72
2022/10/23 00:44:23;;;;;;;7.03;5.33;;;12.80;99.90;;;;;;5052615;28;20633;-72
2022/10/23 00:46:49;;;;;;;9.27;6.30;;;12.80;99.90;;;;;;5052589;28;20191;-72
2022/10/23 00:49:14;;;;;;;8.10;5.43;;;12.80;99.90;;;;;;5051727;28;20207;-72
2022/10/23 00:51:46;;;;;;;6.10;5.23;;;12.80;99.90;;;;;;5053052;28;20744;-72
2022/10/23 00:54:14;;;;;;;8.80;6.07;;;12.80;99.90;;;;;;5052611;28;20182;-72
2022/10/23 00:56:42;;;;;;;8.80;5.83;;;12.90;99.90;;;;;;5052317;28;20402;-72
2022/10/23 00:59:08;;;;;;;18.70;6.77;;;13.00;99.90;;;;;;5052590;28;20777;-73
2022/10/23 01:01:33;;;;;;;8.67;6.43;;;13.00;99.90;;;;;;5051622;28;20432;-72
2022/10/23 01:04:01;;;;;;;7.87;4.70;;;13.00;99.90;;;;;;5042720;28;20183;-73
2022/10/23 01:07:05;;;;;;;7.27;5.23;;;13.10;99.90;;;;;;5044908;28;20226;-73
2022/10/23 01:09:38;;;;;;;5.50;4.93;;;13.10;99.90;;;;;;5029190;28;20492;-72
2022/10/23 01:12:14;;;;;;;6.67;5.97;;;13.10;99.90;;;;;;5052756;28;20773;-73
2022/10/23 01:15:05;;;;;;;10.00;6.17;;;13.10;99.90;;;;;;5052540;28;20546;-72
2022/10/23 01:17:47;;;;;;;6.43;5.37;;;13.20;99.90;;;;;;5016661;28;20433;-72
2022/10/23 01:20:41;;;;;;;8.50;5.30;;;13.10;99.90;;;;;;5011796;28;20897;-72
2022/10/23 01:23:13;;;;;;;7.80;5.60;;;13.10;99.90;;;;;;5012942;28;20490;-72
2022/10/23 01:25:44;;;;;;;10.10;6.37;;;13.10;99.90;;;;;;5011204;28;20953;-72
2022/10/23 01:28:15;;;;;;;7.07;4.80;;;13.10;99.90;;;;;;5011876;28;20418;-72
2022/10/23 01:30:43;;;;;;;5.80;4.10;;;13.10;99.90;;;;;;5012574;28;20414;-72
2022/10/23 01:33:30;;;;;;;10.17;5.33;;;13.10;99.90;;;;;;5056142;23;20485;-69
2022/10/23 01:36:04;;;;;;;7.40;5.50;;;13.10;99.90;;;;;;5030668;28;20860;-69
2022/10/23 01:38:39;;;;;;;6.63;4.80;;;13.00;99.90;;;;;;5031192;28;20401;-69
2022/10/23 01:41:12;;;;;;;8.77;4.80;;;13.00;99.90;;;;;;5030905;28;20413;-68
2022/10/23 01:43:52;;;;;;;6.20;4.53;;;13.00;99.90;;;;;;5031166;28;20485;-69
2022/10/23 01:46:18;;;;;;;6.47;4.90;;;13.00;99.90;;;;;;5030799;28;20410;-70
2022/10/23 01:48:50;;;;;;;6.67;5.37;;;13.00;99.90;;;;;;5032331;28;20468;-69
2022/10/23 01:51:17;;;;;;;5.43;4.63;;;13.00;99.90;;;;;;5027361;28;20511;-68
2022/10/23 01:53:45;;;;;;;7.60;5.07;;;13.00;99.90;;;;;;5031383;28;20475;-69
2022/10/23 01:56:14;;;;;;;5.60;4.83;;;13.00;99.90;;;;;;5031443;28;20460;-69
2022/10/23 01:58:45;;;;;;;8.20;5.07;;;13.00;99.90;;;;;;5031297;28;20402;-70
2022/10/23 02:01:13;;;;;;;5.40;4.90;;;13.00;99.90;;;;;;5031206;28;20410;-69
2022/10/23 02:03:41;;;;;;;5.50;4.63;;;13.10;99.90;;;;;;5031787;28;20399;-69
2022/10/23 02:06:06;;;;;;;8.53;4.77;;;13.10;99.90;;;;;;5031552;28;20512;-69
2022/10/23 02:08:32;;;;;;;7.50;5.23;;;13.10;99.90;;;;;;5018787;28;20434;-69
2022/10/23 02:11:08;;;;;;;9.20;4.80;;;13.10;99.90;;;;;;5039249;28;20167;-69
2022/10/23 02:13:51;;;;;;;8.87;4.87;;;13.00;99.90;;;;;;5032079;28;20575;-69
2022/10/23 02:16:43;;;;;;;8.43;5.77;;;13.00;99.90;;;;;;5045746;28;20417;-68
2022/10/23 02:19:30;;;;;;;10.23;6.23;;;13.10;99.90;;;;;;5051337;28;20424;-69
2022/10/23 02:21:58;;;;;;;6.13;4.60;;;13.00;99.90;;;;;;5051181;28;20432;-69
2022/10/23 02:24:52;;;;;;;5.73;4.90;;;13.00;99.90;;;;;;5051254;28;20418;-69
2022/10/23 02:27:33;;;;;;;8.37;5.43;;;13.10;99.90;;;;;;5034132;28;20947;-71
2022/10/23 02:30:05;;;;;;;7.47;5.60;;;13.10;99.90;;;;;;5045995;28;20467;-68
2022/10/23 02:32:33;;;;;;;6.37;5.33;;;13.10;99.90;;;;;;5051321;28;20804;-69
2022/10/23 02:34:58;;;;;;;8.20;5.80;;;13.10;99.90;;;;;;5050954;28;20474;-69
2022/10/23 02:37:24;;;;;;;7.53;4.57;;;13.20;99.90;;;;;;5024402;28;20403;-69
2022/10/23 02:39:51;;;;;;;6.80;4.57;;;13.20;99.90;;;;;;5010218;28;20416;-69
2022/10/23 02:42:31;;;;;;;6.90;4.87;;;13.20;99.90;;;;;;5009903;28;20271;-69
2022/10/23 02:45:21;;;;;;;5.40;4.20;;;13.20;99.90;;;;;;5009869;28;20407;-69
2022/10/23 02:48:17;;;;;;;8.53;5.13;;;13.20;99.90;;;;;;5010106;28;20443;-69
2022/10/23 02:50:52;;;;;;;8.93;5.40;;;13.20;99.90;;;;;;5009663;28;20403;-68
2022/10/23 02:53:41;;;;;;;6.60;4.70;;;13.20;99.90;;;;;;5011048;28;20637;-68
2022/10/23 02:56:10;;;;;;;5.93;4.40;;;13.20;99.90;;;;;;5030022;28;20418;-69
2022/10/23 02:58:46;;;;;;;6.23;5.00;;;13.20;99.90;;;;;;5042052;28;20403;-69
2022/10/23 03:01:19;;;;;;;5.83;4.03;;;13.20;99.90;;;;;;5031380;28;20433;-69
2022/10/23 03:03:56;;;;;;;6.33;4.40;;;13.10;99.90;;;;;;5051013;28;20405;-69
2022/10/23 03:06:22;;;;;;;6.80;5.50;;;13.10;99.90;;;;;;5050605;28;20429;-68
2022/10/23 03:08:52;;;;;;;5.97;5.37;;;13.00;99.90;;;;;;5050979;28;20757;-70
2022/10/23 03:11:17;;;;;;;4.97;4.40;;;13.00;99.90;;;;;;5036515;28;20410;-69
2022/10/23 03:13:43;;;;;;;6.10;4.13;;;13.00;99.90;;;;;;5037913;28;20464;-68
2022/10/23 03:16:09;;;;;;;6.60;5.40;;;13.00;99.90;;;;;;5048653;28;20175;-68
2022/10/23 03:18:34;;;;;;;9.93;5.17;;;12.90;99.90;;;;;;5050979;28;20582;-69
2022/10/23 03:21:00;;;;;;;5.03;4.37;;;12.90;99.90;;;;;;5050754;28;20232;-69
2022/10/23 03:23:26;;;;;;;7.30;4.90;;;12.80;99.90;;;;;;5050739;28;20171;-69
2022/10/23 03:25:52;;;;;;;14.23;6.00;;;12.80;99.90;;;;;;5054119;28;20523;-69
2022/10/23 03:28:18;;;;;;;10.50;5.63;;;12.70;99.90;;;;;;5054309;28;20179;-68
2022/10/23 03:30:43;;;;;;;4.80;4.00;;;12.80;99.90;;;;;;5054433;28;20777;-68
2022/10/23 03:33:09;;;;;;;9.63;4.97;;;12.70;99.90;;;;;;5054430;28;20207;-68
2022/10/23 03:35:34;;;;;;;5.73;5.07;;;12.70;99.90;;;;;;5054146;28;20195;-69
2022/10/23 03:38:00;;;;;;;9.50;4.40;;;12.80;99.90;;;;;;5054277;28;20201;-70
2022/10/23 03:40:26;;;;;;;4.53;4.13;;;12.70;99.90;;;;;;5054312;28;20166;-68
2022/10/23 03:42:51;;;;;;;7.40;5.40;;;12.70;99.90;;;;;;5054379;28;20189;-69
2022/10/23 03:45:17;;;;;;;7.57;5.17;;;12.60;99.90;;;;;;5053937;28;20545;-69
2022/10/23 03:47:43;;;;;;;6.50;4.97;;;12.60;99.90;;;;;;5046924;28;20168;-68
2022/10/23 03:50:10;;;;;;;8.90;4.90;;;12.60;99.90;;;;;;5043220;28;20311;-69
2022/10/23 03:52:35;;;;;;;6.67;5.13;;;12.60;99.90;;;;;;5050227;28;20461;-68
2022/10/23 03:55:01;;;;;;;6.10;4.87;;;12.50;99.90;;;;;;5013019;28;21035;-69
2022/10/23 03:57:26;;;;;;;4.80;4.33;;;12.50;99.90;;;;;;5016384;28;20271;-69
2022/10/23 03:59:52;;;;;;;7.40;5.03;;;12.40;99.90;;;;;;5015251;28;20169;-69
2022/10/23 04:02:18;;;;;;;8.40;5.20;;;12.30;99.90;;;;;;5013715;28;20239;-69
2022/10/23 04:04:43;;;;;;;7.90;5.50;;;12.40;99.90;;;;;;5013693;28;20519;-69
2022/10/23 04:07:09;;;;;;;7.20;5.60;;;12.30;99.90;;;;;;5014366;28;20535;-68
2022/10/23 04:09:35;;;;;;;5.97;4.80;;;12.30;99.90;;;;;;5038449;28;20703;-68
2022/10/23 04:12:00;;;;;;;8.53;5.43;;;12.20;99.90;;;;;;5043611;28;20198;-68
2022/10/23 04:14:26;;;;;;;13.33;5.10;;;12.20;99.90;;;;;;5044706;28;20720;-68
2022/10/23 04:16:51;;;;;;;9.20;5.27;;;12.20;99.90;;;;;;5048214;28;20703;-68
2022/10/23 04:19:17;;;;;;;8.20;5.37;;;12.10;99.90;;;;;;5053616;28;20202;-69
2022/10/23 04:21:43;;;;;;;7.50;5.20;;;12.10;99.90;;;;;;5052166;28;20653;-68
2022/10/23 04:24:08;;;;;;;6.13;5.43;;;12.00;99.90;;;;;;5031814;28;20176;-69
2022/10/23 04:26:34;;;;;;;9.30;5.47;;;12.00;99.90;;;;;;5012512;28;20442;-69
2022/10/23 04:28:59;;;;;;;6.47;5.80;;;12.00;99.90;;;;;;5017132;28;20180;-68
2022/10/23 04:31:25;;;;;;;7.93;6.23;;;12.00;99.90;;;;;;5031814;28;20200;-68
2022/10/23 04:33:51;;;;;;;7.80;4.60;;;11.90;99.90;;;;;;5031299;28;20172;-67
2022/10/23 04:36:16;;;;;;;6.80;6.10;;;11.80;99.90;;;;;;5026811;28;20238;-68
2022/10/23 04:38:42;;;;;;;9.30;4.77;;;11.80;99.90;;;;;;5031782;28;20254;-68
2022/10/23 04:41:07;;;;;;;7.73;6.27;;;11.80;99.90;;;;;;5022290;28;20651;-69
2022/10/23 04:43:33;;;;;;;9.57;5.40;;;11.70;99.90;;;;;;5049122;28;20226;-69
2022/10/23 04:45:58;;;;;;;9.93;6.07;;;11.70;99.90;;;;;;5050252;28;20591;-69
2022/10/23 04:48:24;;;;;;;9.33;5.20;;;11.70;99.90;;;;;;5053296;28;20181;-69
2022/10/23 04:51:01;;;;;;;10.33;5.53;;;11.60;99.90;;;;;;5053073;28;20170;-69
2022/10/23 04:53:27;;;;;;;8.67;6.33;;;11.60;99.90;;;;;;5052856;28;20179;-69
2022/10/23 04:55:54;;;;;;;8.67;6.80;;;11.60;99.90;;;;;;5052362;28;20499;-69
2022/10/23 04:58:20;;;;;;;10.93;5.07;;;11.60;99.90;;;;;;5045065;28;20485;-69
2022/10/23 05:00:47;;;;;;;9.47;5.70;;;11.60;99.90;;;;;;5034829;28;20770;-68
2022/10/23 05:03:13;;;;;;;10.67;5.73;;;11.60;99.90;;;;;;5045758;28;20422;-69
2022/10/23 05:05:39;;;;;;;6.43;5.33;;;11.50;99.90;;;;;;5052588;28;20416;-69
2022/10/23 05:08:05;;;;;;;7.20;5.90;;;11.60;99.90;;;;;;5052432;28;20872;-69
2022/10/23 05:10:30;;;;;;;8.60;6.10;;;11.50;99.90;;;;;;5052655;28;20630;-68
2022/10/23 05:12:56;;;;;;;13.10;6.87;;;11.50;99.90;;;;;;5052655;28;20195;-68
2022/10/23 05:15:21;;;;;;;8.00;7.10;;;11.60;99.90;;;;;;5044763;28;20200;-69
2022/10/23 05:17:50;;;;;;;9.20;6.47;;;11.50;99.90;;;;;;5050409;28;20182;-70
2022/10/23 05:20:21;;;;;;;10.90;6.40;;;11.40;99.90;;;;;;5052781;28;20540;-69
2022/10/23 05:22:51;;;;;;;8.13;6.37;;;11.50;99.90;;;;;;5047604;28;20725;-69
2022/10/23 05:25:17;;;;;;;11.63;6.67;;;11.50;99.90;;;;;;5030816;28;20426;-69
2022/10/23 05:27:43;;;;;;;7.90;6.40;;;11.50;99.90;;;;;;5039648;28;20506;-69
2022/10/23 05:30:09;;;;;;;9.93;6.20;;;11.40;99.90;;;;;;5042775;28;20648;-69
2022/10/23 05:32:35;;;;;;;7.30;5.90;;;11.40;99.90;;;;;;5035697;28;20211;-68
2022/10/23 05:35:06;;;;;;;11.43;6.63;;;11.40;99.90;;;;;;5036657;28;20939;-69
2022/10/23 05:37:32;;;;;;;10.00;6.17;;;11.50;99.90;;;;;;5038501;28;20398;-70
2022/10/23 05:39:57;;;;;;;9.70;7.53;;;11.60;99.90;;;;;;5041939;28;20911;-69
2022/10/23 05:42:23;;;;;;;11.57;7.67;;;11.50;99.90;;;;;;5029825;28;20450;-69
2022/10/23 05:44:48;;;;;;;12.83;7.17;;;11.60;99.90;;;;;;5015146;28;20184;-69
2022/10/23 05:47:14;;;;;;;9.60;6.53;;;11.60;99.90;;;;;;5018209;28;20175;-69
2022/10/23 05:49:39;;;;;;;9.93;6.63;;;11.60;99.90;;;;;;5035052;28;20352;-69
2022/10/23 05:52:05;;;;;;;9.10;7.23;;;11.60;99.90;;;;;;5030669;28;20202;-68
2022/10/23 05:54:30;;;;;;;8.63;6.87;;;11.50;99.90;;;;;;5031556;28;20685;-69
2022/10/23 05:56:56;;;;;;;11.90;7.13;;;11.50;99.90;;;;;;5031779;28;20256;-69
2022/10/23 05:59:22;;;;;;;8.90;7.27;;;11.60;99.90;;;;;;5034096;28;20171;-69
2022/10/23 06:01:47;;;;;;;9.87;6.90;;;11.60;99.90;;;;;;5038758;28;20207;-68
2022/10/23 06:04:13;;;;;;;13.30;6.20;;;11.70;99.90;;;;;;5045797;28;20172;-70
2022/10/23 06:06:38;;;;;;;7.93;6.20;;;11.70;99.90;;;;;;5032933;28;20202;-70
2022/10/23 06:09:04;;;;;;;11.20;7.97;;;11.70;99.90;;;;;;5051238;28;20257;-68
2022/10/23 06:11:30;;;;;;;10.70;7.87;;;11.80;99.90;;;;;;5049915;28;20201;-68
2022/10/23 06:13:55;;;;;;;9.97;7.33;;;11.70;99.90;;;;;;5050687;28;20230;-69
2022/10/23 06:16:26;;;;;;;11.93;7.60;;;11.60;99.90;;;;;;5050941;28;20162;-70
2022/10/23 06:18:51;;;;;;;8.63;7.10;;;11.70;99.90;;;;;;5036270;28;20178;-69
2022/10/23 06:21:18;;;;;;;12.30;6.73;;;11.70;99.90;;;;;;5045527;28;20417;-69
2022/10/23 06:23:44;;;;;;;9.50;6.80;;;11.70;99.90;;;;;;5048643;28;20163;-69
2022/10/23 06:26:12;;;;;;;12.43;8.23;;;11.80;99.90;;;;;;5051003;28;20402;-69
2022/10/23 06:28:37;;;;;;;10.13;7.37;;;11.80;99.90;;;;;;5051249;28;20412;-69
2022/10/23 06:31:05;;;;;;;8.87;6.57;;;11.90;99.90;;;;;;5048639;28;20908;-69
2022/10/23 06:33:30;;;;;;;10.10;7.00;;;11.80;99.90;;;;;;5051039;28;20501;-69
2022/10/23 06:35:56;;;;;;;10.70;6.70;;;11.90;99.90;;;;;;5047721;28;20595;-70
2022/10/23 06:38:21;;;;;;;8.63;6.77;;;12.00;99.90;;;;;;5051262;28;20167;-70
2022/10/23 06:40:55;;;;;;;12.73;8.70;;;12.00;99.90;;;;;;5043353;28;20601;-68
2022/10/23 06:43:20;;;;;;;12.10;8.53;;;12.00;99.90;;;;;;5037826;28;20222;-69
2022/10/23 06:45:46;;;;;;;10.07;6.60;;;12.00;99.90;;;;;;5034431;28;20414;-68
2022/10/23 06:48:12;;;;;;;11.80;7.90;;;12.10;99.90;;;;;;5050811;28;20266;-68
2022/10/23 06:50:38;;;;;;;10.80;6.97;;;12.20;99.90;;;;;;5046343;28;20249;-69
2022/10/23 06:53:05;;;;;;;9.57;6.50;;;12.20;99.90;;;;;;5030983;28;20681;-69
2022/10/23 06:55:31;;;;;;;9.67;8.63;;;12.40;99.90;;;;;;5031768;28;20561;-69
2022/10/23 06:57:57;;;;;;;13.60;5.93;;;12.50;99.90;;;;;;5034852;28;20437;-69
2022/10/23 07:00:23;;;;;;;8.10;6.77;;;12.50;99.90;;;;;;5051238;28;20775;-69
2022/10/23 07:02:50;;;;;;;8.73;6.80;;;12.60;99.90;;;;;;5045261;28;20680;-68
2022/10/23 07:05:15;;;;;;;6.33;5.70;;;12.60;99.90;;;;;;5053351;28;20444;-69
2022/10/23 07:07:41;;;;;;;9.20;6.90;;;12.70;99.90;;;;;;5052776;28;20445;-68
2022/10/23 07:10:07;;;;;;;7.00;6.30;;;12.70;99.90;;;;;;5055511;28;20424;-68
2022/10/23 07:12:32;;;;;;;7.13;6.30;;;12.70;99.90;;;;;;5018015;28;20206;-69
2022/10/23 07:14:58;;;;;;;8.20;5.50;;;12.90;99.90;;;;;;5014606;28;20200;-68
2022/10/23 07:17:23;;;;;;;9.20;6.93;;;13.00;99.90;;;;;;5033261;28;20182;-69
2022/10/23 07:19:49;;;;;;;7.27;6.43;;;13.30;99.90;;;;;;5034270;28;20172;-69
2022/10/23 07:22:14;;;;;;;8.20;6.47;;;13.20;99.90;;;;;;5034517;28;20193;-69
2022/10/23 07:24:40;;;;;;;9.07;5.10;;;13.30;99.90;;;;;;5035380;28;20187;-69
2022/10/23 07:27:06;;;;;;;5.90;5.37;;;13.40;99.90;;;;;;5034904;28;20177;-69
2022/10/23 07:29:32;;;;;;;5.73;4.50;;;13.50;99.90;;;;;;5051729;28;20183;-69
2022/10/23 07:31:59;;;;;;;8.20;5.43;;;13.70;99.90;;;;;;5063960;23;20222;-72
2022/10/23 07:34:25;;;;;;;4.00;3.60;;;13.70;99.90;;;;;;5033966;28;20497;-73
2022/10/23 07:36:53;;;;;;;5.37;4.40;;;13.90;99.90;;;;;;5033706;28;20514;-71
2022/10/23 07:39:19;;;;;;;10.10;5.53;;;13.80;99.90;;;;;;5033373;28;20396;-74
2022/10/23 07:41:44;;;;;;;6.13;5.53;;;13.80;99.90;;;;;;5034231;28;20412;-71
2022/10/23 07:44:10;;;;;;;10.27;5.57;;;13.70;99.90;;;;;;5036541;28;20439;-72
2022/10/23 07:46:36;;;;;;;5.77;4.80;;;13.60;99.90;;;;;;5038392;28;20562;-72
2022/10/23 07:49:01;;;;;;;8.03;5.43;;;13.60;99.90;;;;;;5039839;28;20222;-73
2022/10/23 07:51:27;;;;;;;5.10;4.70;;;13.70;99.90;;;;;;5038256;28;20177;-72
2022/10/23 07:53:52;;;;;;;6.27;5.67;;;13.80;99.90;;;;;;5041003;28;20193;-73
2022/10/23 07:56:28;;;;;;;5.50;4.73;;;13.90;99.90;;;;;;5050344;28;20673;-71
2022/10/23 07:58:54;;;;;;;7.53;4.73;;;14.20;99.90;;;;;;5033849;28;20642;-71
2022/10/23 08:01:30;;;;;;;5.33;4.70;;;14.50;99.90;;;;;;5054194;28;20409;-72
2022/10/23 08:03:56;;;;;;;8.20;5.07;;;15.00;99.90;;;;;;5037809;28;20182;-72
2022/10/23 08:06:21;;;;;;;6.70;5.10;;;15.40;99.90;;;;;;5039642;28;20419;-72
2022/10/23 08:08:47;;;;;;;4.90;4.40;;;15.50;99.90;;;;;;5037553;28;20189;-72
2022/10/23 08:11:14;;;;;;;5.87;4.83;;;15.60;99.90;;;;;;5053310;28;20182;-72
2022/10/23 08:13:40;;;;;;;6.40;4.80;;;15.60;99.90;;;;;;5050048;28;20613;-72
2022/10/23 08:16:06;;;;;;;6.87;4.73;;;15.70;99.90;;;;;;5036508;28;20545;-73
2022/10/23 08:18:31;;;;;;;5.03;4.60;;;16.00;99.90;;;;;;5034109;28;20546;-73
2022/10/23 08:21:02;;;;;;;5.73;5.23;;;16.20;99.90;;;;;;5040776;28;20173;-72
2022/10/23 08:23:28;;;;;;;5.00;4.50;;;16.70;99.90;;;;;;5049060;28;20203;-73
2022/10/23 08:25:59;;;;;;;6.40;4.10;;;16.40;99.90;;;;;;5044967;28;20499;-72
2022/10/23 08:28:25;;;;;;;8.10;4.90;;;16.30;99.90;;;;;;5043417;28;20429;-73
2022/10/23 08:30:51;;;;;;;5.00;4.50;;;15.90;99.90;;;;;;5055188;28;20568;-72
2022/10/23 08:33:17;;;;;;;7.57;4.80;;;16.20;99.90;;;;;;5049076;28;20508;-73
2022/10/23 08:35:42;;;;;;;6.20;4.63;;;16.90;99.90;;;;;;5053075;28;20197;-72
2022/10/23 08:38:09;;;;;;;4.43;3.97;;;17.50;99.90;;;;;;5042449;28;20359;-73
2022/10/23 08:40:35;;;;;;;7.43;4.23;;;17.70;99.90;;;;;;5038968;28;20179;-73
2022/10/23 08:43:10;;;;;;;4.30;3.87;;;18.00;99.90;;;;;;5038852;28;20449;-73
2022/10/23 08:45:41;;;;;;;4.60;3.63;;;17.70;99.90;;;;;;5053090;28;20411;-73
2022/10/23 08:48:31;;;;;;;4.17;3.10;;;18.20;99.90;;;;;;5031883;28;20822;-73
2022/10/23 08:51:21;;;;;;;6.63;3.80;;;18.90;99.90;;;;;;5021187;28;20407;-73
2022/10/23 08:53:56;;;;;;;4.67;3.60;;;19.70;99.90;;;;;;5038290;28;20450;-74
2022/10/23 08:56:33;;;;;;;4.00;3.70;;;19.90;99.90;;;;;;5034450;28;20424;-73
2022/10/23 08:59:04;;;;;;;4.27;3.93;;;19.10;99.90;;;;;;5052891;28;20440;-72
2022/10/23 09:01:54;;;;;;;3.80;3.47;;;18.70;99.90;;;;;;5047874;28;20420;-72
2022/10/23 09:04:20;;;;;;;4.47;4.03;;;17.70;99.90;;;;;;5052895;28;20414;-72
2022/10/23 09:07:20;;;;;;;5.57;3.90;;;17.90;99.90;;;;;;5036903;28;20483;-72
2022/10/23 09:10:11;;;;;;;4.53;3.40;;;18.00;99.90;;;;;;5039390;28;20167;-72
2022/10/23 09:12:38;;;;;;;4.67;3.50;;;18.20;99.90;;;;;;5048075;28;20793;-72
2022/10/23 09:15:27;;;;;;;5.50;3.83;;;18.00;99.90;;;;;;5052697;28;20502;-72
2022/10/23 09:18:06;;;;;;;3.20;2.90;;;17.80;99.90;;;;;;5025362;28;20426;-72
2022/10/23 09:20:33;;;;;;;3.60;3.20;;;17.40;99.90;;;;;;5031050;28;20692;-72
2022/10/23 09:23:19;;;;;;;6.23;3.90;;;17.90;99.90;;;;;;5028622;28;20974;-73
2022/10/23 09:25:46;;;;;;;4.13;3.47;;;17.40;99.90;;;;;;5030856;28;20410;-72
2022/10/23 09:28:19;;;;;;;4.40;2.97;;;17.40;99.90;;;;;;5032326;28;20424;-72
2022/10/23 09:30:46;;;;;;;4.43;3.23;;;17.70;99.90;;;;;;5032900;28;20915;-72
2022/10/23 09:33:20;;;;;;;5.03;3.07;;;17.40;99.90;;;;;;5031991;28;20809;-72
2022/10/23 09:35:58;;;;;;;5.90;3.67;;;17.40;99.90;;;;;;5039922;28;20498;-72
2022/10/23 09:38:32;;;;;;;4.67;3.87;;;17.60;99.90;;;;;;5015103;28;20913;-71
2022/10/23 09:41:01;;;;;;;4.30;3.90;;;17.50;99.90;;;;;;5031539;28;20480;-71
2022/10/23 09:43:28;;;;;;;4.57;4.10;;;17.30;99.90;;;;;;5031484;28;20493;-71
2022/10/23 09:46:02;;;;;;;5.83;4.07;;;17.30;99.90;;;;;;5031437;28;20476;-69
2022/10/23 09:48:28;;;;;;;7.73;5.80;;;17.20;99.90;;;;;;5032317;28;20423;-70
2022/10/23 09:50:53;;;;;;;6.20;5.47;;;17.30;99.90;;;;;;5033605;28;20403;-70
2022/10/23 09:53:34;;;;;;;3.40;3.10;;;17.30;99.90;;;;;;5037563;28;20201;-70
2022/10/23 09:56:23;;;;;;;5.67;4.20;;;17.30;99.90;;;;;;5043932;28;20297;-70
2022/10/23 09:59:11;;;;;;;5.83;3.63;;;17.30;99.90;;;;;;5030238;28;20419;-71
2022/10/23 10:01:49;;;;;;;4.90;4.50;;;17.30;99.90;;;;;;5025877;28;20410;-70
2022/10/23 10:04:15;;;;;;;3.43;2.80;;;17.40;99.90;;;;;;5044101;28;20420;-70
2022/10/23 10:06:42;;;;;;;3.30;2.77;;;17.30;99.90;;;;;;5052016;28;20948;-71
2022/10/23 10:09:12;;;;;;;7.43;5.47;;;17.10;99.90;;;;;;5036462;28;20505;-70
2022/10/23 10:11:53;;;;;;;7.17;3.40;;;17.30;99.90;;;;;;5035018;28;20783;-73
2022/10/23 10:14:40;;;;;;;7.27;3.37;;;17.20;99.90;;;;;;5032484;28;20944;-73
2022/10/23 10:17:19;;;;;;;4.10;2.43;;;17.30;99.90;;;;;;5047491;28;20412;-72
2022/10/23 10:20:13;;;;;;;5.07;2.87;;;17.10;99.90;;;;;;5044214;28;20473;-73
2022/10/23 10:22:52;;;;;;;2.40;2.07;;;17.30;99.90;;;;;;5039287;28;20444;-74
2022/10/23 10:25:35;;;;;;;3.20;2.40;;;17.50;99.90;;;;;;5025145;28;20410;-72
2022/10/23 10:28:28;;;;;;;2.90;2.20;;;17.50;99.90;;;;;;5052077;28;20454;-72
2022/10/23 10:30:59;;;;;;;3.80;2.20;;;17.60;99.90;;;;;;5036951;28;20417;-72
2022/10/23 10:33:52;;;;;;;3.03;2.20;;;17.60;99.90;;;;;;5051022;28;20938;-71
2022/10/23 10:36:55;;;;;;;2.50;2.27;;;17.50;99.90;;;;;;5034690;28;20521;-71
2022/10/23 10:39:47;;;;;;;2.70;2.27;;;17.80;99.90;;;;;;4966618;28;20433;-72
2022/10/23 10:42:20;;;;;;;4.30;2.17;;;17.80;99.90;;;;;;5000505;28;20562;-71
2022/10/23 10:45:03;;;;;;;2.50;2.03;;;17.90;99.90;;;;;;5046415;28;20479;-73
2022/10/23 10:48:06;;;;;;;3.10;2.27;;;17.90;99.90;;;;;;5018184;28;20438;-72
2022/10/23 10:50:55;;;;;;;2.93;2.03;;;17.90;99.90;;;;;;5027337;28;20424;-72
2022/10/23 10:53:53;;;;;;;4.23;2.30;;;18.10;99.90;;;;;;5029292;28;20428;-72
2022/10/23 10:56:23;;;;;;;3.73;2.77;;;18.10;99.90;;;;;;5030627;28;20426;-72
2022/10/23 10:58:54;;;;;;;2.90;1.80;;;18.00;99.90;;;;;;5035162;28;20491;-72
2022/10/23 11:01:41;;;;;;;3.13;2.70;;;18.20;99.90;;;;;;5020621;28;20410;-73
2022/10/23 11:04:35;;;;;;;2.37;2.17;;;18.30;99.90;;;;;;5042742;28;20409;-72
2022/10/23 11:07:10;;;;;;;5.57;2.30;;;18.40;99.90;;;;;;5052360;28;20453;-72
2022/10/23 11:09:38;;;;;;;3.30;2.33;;;18.20;99.90;;;;;;5051279;28;20488;-72
2022/10/23 11:12:04;;;;;;;2.97;2.50;;;18.10;99.90;;;;;;5050488;28;20426;-71
2022/10/23 11:14:34;;;;;;;3.30;3.00;;;18.00;99.90;;;;;;5035595;28;20453;-71
2022/10/23 11:17:17;;;;;;;2.93;2.67;;;18.00;99.90;;;;;;5037999;28;20418;-71
2022/10/23 11:19:56;;;;;;;3.10;2.33;;;18.10;99.90;;;;;;5050393;28;20929;-72
2022/10/23 11:22:29;;;;;;;3.33;2.60;;;18.30;99.90;;;;;;5030663;28;20443;-73
2022/10/23 11:25:14;;;;;;;2.70;2.50;;;18.50;99.90;;;;;;5019052;28;20411;-72
2022/10/23 11:28:05;;;;;;;3.90;2.80;;;18.60;99.90;;;;;;5024498;28;20421;-73
2022/10/23 11:30:43;;;;;;;2.90;1.93;;;18.60;99.90;;;;;;5051694;28;20924;-71
2022/10/23 11:33:27;;;;;;;5.97;3.10;;;18.60;99.90;;;;;;5043459;28;20484;-70
2022/10/23 11:36:17;;;;;;;5.53;3.40;;;18.80;99.90;;;;;;5045903;28;20883;-73
2022/10/23 11:38:48;;;;;;;3.00;2.80;;;18.80;99.90;;;;;;5042765;28;20422;-74
2022/10/23 11:41:32;;;;;;;3.17;2.87;;;18.80;99.90;;;;;;5023894;28;20926;-73
2022/10/23 11:44:02;;;;;;;3.60;3.30;;;18.90;99.90;;;;;;5031542;28;20409;-73
2022/10/23 11:46:29;;;;;;;4.73;3.63;;;18.80;99.90;;;;;;5041507;28;20961;-73
2022/10/23 11:48:55;;;;;;;4.47;3.80;;;18.70;99.90;;;;;;5040138;28;20758;-73
2022/10/23 11:51:36;;;;;;;3.50;3.20;;;18.70;99.90;;;;;;5042773;28;20886;-73
2022/10/23 11:54:12;;;;;;;3.90;2.53;;;18.80;99.90;;;;;;5027276;28;20410;-72
2022/10/23 11:56:57;;;;;;;4.80;2.57;;;18.90;99.90;;;;;;5050948;28;20536;-73
2022/10/23 11:59:33;;;;;;;5.60;2.70;;;18.90;99.90;;;;;;5023079;28;20403;-73
2022/10/23 12:02:01;;;;;;;3.03;2.43;;;18.80;99.90;;;;;;5047905;28;20458;-75
2022/10/23 12:04:39;;;;;;;4.93;2.50;;;18.90;99.90;;;;;;5053062;28;20800;-75
2022/10/23 12:07:21;;;;;;;3.23;1.93;;;19.00;99.90;;;;;;5053936;28;20451;-74
2022/10/23 12:10:00;;;;;;;6.73;2.40;;;19.00;99.90;;;;;;5052810;28;20472;-72
2022/10/23 12:12:28;;;;;;;2.57;2.37;;;19.20;99.90;;;;;;5054004;28;20819;-74
2022/10/23 12:15:07;;;;;;;3.57;2.30;;;19.20;99.90;;;;;;5053695;28;20447;-74
2022/10/23 12:17:40;;;;;;;7.73;2.40;;;19.40;99.90;;;;;;5054119;28;20402;-74
2022/10/23 12:20:12;;;;;;;3.70;1.73;;;19.40;99.90;;;;;;5053798;28;20853;-72
2022/10/23 12:22:49;;;;;;;2.50;2.10;;;19.30;99.90;;;;;;5054032;28;20966;-71
2022/10/23 12:25:37;;;;;;;2.87;2.43;;;19.20;99.90;;;;;;5053393;28;20452;-73
2022/10/23 12:28:06;;;;;;;6.87;4.23;;;19.10;99.90;;;;;;5069078;28;20456;-73
2022/10/23 12:31:03;;;;;;;3.50;2.50;;;19.30;99.90;;;;;;5053477;28;20796;-74
2022/10/23 12:33:49;;;;;;;2.40;2.10;;;19.50;99.90;;;;;;5053158;28;20648;-72
2022/10/23 12:36:37;;;;;;;13.13;3.83;;;19.50;99.90;;;;;;5053283;28;20452;-72
2022/10/23 12:39:38;;;;;;;2.70;2.17;;;19.40;99.90;;;;;;5053004;28;20410;-73
2022/10/23 12:42:09;;;;;;;2.50;1.97;;;19.20;99.90;;;;;;5047715;28;20859;-73
2022/10/23 12:44:35;;;;;;;3.43;1.80;;;19.10;99.90;;;;;;5036998;28;21015;-74
2022/10/23 12:47:02;;;;;;;2.20;2.00;;;19.20;99.90;;;;;;5048011;28;20408;-73
2022/10/23 12:49:34;;;;;;;2.30;1.73;;;19.10;99.90;;;;;;5033409;28;20707;-72
2022/10/23 12:52:04;;;;;;;2.00;1.83;;;19.20;99.90;;;;;;5040883;28;20946;-73
2022/10/23 12:54:36;;;;;;;3.50;1.80;;;19.10;99.90;;;;;;5035250;28;20516;-75
2022/10/23 12:57:16;;;;;;;4.23;2.00;;;19.10;99.90;;;;;;5040128;28;20410;-74
2022/10/23 12:59:42;;;;;;;2.73;1.77;;;19.10;99.90;;;;;;5052960;28;20402;-74
2022/10/23 13:02:28;;;;;;;2.90;1.70;;;19.10;99.90;;;;;;5031975;28;20431;-74
2022/10/23 13:04:57;;;;;;;4.63;2.20;;;19.10;99.90;;;;;;5040858;28;20416;-74
2022/10/23 13:07:27;;;;;;;4.07;1.87;;;19.10;99.90;;;;;;5053136;28;20412;-74